createdAt,value
2022-11-29T00:00:46.302Z,0.00
2022-11-29T00:01:46.331Z,0.00
2022-11-29T00:02:46.414Z,0.00
2022-11-29T00:03:46.324Z,0.00
2022-11-29T00:04:46.341Z,0.00
2022-11-29T00:05:46.312Z,0.00
2022-11-29T00:06:46.302Z,0.00
2022-11-29T00:07:46.308Z,0.00
2022-11-29T00:08:46.322Z,0.00
2022-11-29T00:09:46.313Z,0.00
2022-11-29T00:10:46.303Z,0.00
2022-11-29T00:11:46.379Z,0.00
2022-11-29T00:12:46.375Z,0.00
2022-11-29T00:13:46.374Z,0.00
2022-11-29T00:14:46.764Z,0.00
2022-11-29T00:15:46.425Z,0.00
2022-11-29T00:16:46.432Z,0.00
2022-11-29T00:17:46.428Z,0.00
2022-11-29T00:18:46.435Z,0.00
2022-11-29T00:19:46.437Z,0.00
2022-11-29T00:20:46.435Z,0.00
2022-11-29T00:21:46.427Z,0.00
2022-11-29T00:22:46.506Z,0.00
2022-11-29T00:23:46.489Z,0.00
2022-11-29T00:24:46.679Z,0.00
2022-11-29T00:25:46.546Z,0.00
2022-11-29T00:26:46.639Z,0.00
2022-11-29T00:27:46.635Z,0.00
2022-11-29T00:28:46.617Z,0.00
2022-11-29T00:29:46.617Z,0.00
2022-11-29T00:30:46.657Z,0.00
2022-11-29T00:31:46.688Z,0.00
2022-11-29T00:32:46.686Z,0.00
2022-11-29T00:33:46.679Z,0.00
2022-11-29T00:34:46.739Z,0.00
2022-11-29T00:35:46.710Z,0.00
2022-11-29T00:36:46.788Z,0.00
2022-11-29T00:37:46.779Z,0.00
2022-11-29T00:38:46.769Z,0.00
2022-11-29T00:39:46.838Z,0.00
2022-11-29T00:40:46.901Z,0.00
2022-11-29T00:41:46.910Z,0.00
2022-11-29T00:42:46.900Z,0.00
2022-11-29T00:43:46.900Z,0.00
2022-11-29T00:44:46.891Z,0.00
2022-11-29T00:45:46.919Z,0.00
2022-11-29T00:46:46.901Z,0.00
2022-11-29T00:47:46.913Z,0.00
2022-11-29T00:48:46.901Z,0.00
2022-11-29T00:49:46.900Z,0.00
2022-11-29T00:50:46.894Z,0.00
2022-11-29T00:51:46.899Z,0.00
2022-11-29T00:52:46.882Z,0.00
2022-11-29T00:53:46.897Z,0.00
2022-11-29T00:54:47.054Z,0.00
2022-11-29T00:55:46.875Z,0.00
2022-11-29T00:56:46.863Z,0.00
2022-11-29T00:57:46.934Z,0.00
2022-11-29T00:58:46.945Z,0.00
2022-11-29T00:59:46.936Z,0.00
2022-11-29T01:00:46.933Z,0.00
2022-11-29T01:01:46.978Z,0.00
2022-11-29T01:02:47.047Z,0.00
2022-11-29T01:03:47.045Z,0.00
2022-11-29T01:04:47.367Z,0.00
2022-11-29T01:05:47.046Z,0.00
2022-11-29T01:06:47.035Z,0.00
2022-11-29T01:07:47.145Z,0.00
2022-11-29T01:08:47.176Z,0.00
2022-11-29T01:09:47.176Z,0.00
2022-11-29T01:10:47.182Z,0.00
2022-11-29T01:11:47.166Z,0.00
2022-11-29T01:12:47.158Z,0.00
2022-11-29T01:13:47.149Z,0.00
2022-11-29T01:14:47.330Z,0.00
2022-11-29T01:15:47.169Z,0.00
2022-11-29T01:16:47.241Z,0.00
2022-11-29T01:17:47.178Z,0.00
2022-11-29T01:18:47.159Z,0.00
2022-11-29T01:19:50.843Z,0.00
2022-11-29T01:20:47.259Z,0.00
2022-11-29T01:21:47.271Z,0.00
2022-11-29T01:22:47.261Z,0.00
2022-11-29T01:23:47.329Z,0.00
2022-11-29T01:24:47.320Z,0.00
2022-11-29T01:25:47.319Z,0.00
2022-11-29T01:26:47.320Z,0.00
2022-11-29T01:27:47.320Z,0.00
2022-11-29T01:28:47.320Z,0.00
2022-11-29T01:29:47.311Z,0.00
2022-11-29T01:30:47.342Z,0.00
2022-11-29T01:31:47.360Z,0.00
2022-11-29T01:32:47.361Z,0.00
2022-11-29T01:33:47.362Z,0.00
2022-11-29T01:34:47.413Z,0.00
2022-11-29T01:35:47.397Z,0.00
2022-11-29T01:36:47.476Z,0.00
2022-11-29T01:37:47.491Z,0.00
2022-11-29T01:38:47.484Z,0.00
2022-11-29T01:39:47.473Z,0.00
2022-11-29T01:40:47.544Z,0.00
2022-11-29T01:41:47.534Z,0.00
2022-11-29T01:42:47.614Z,0.00
2022-11-29T01:43:47.624Z,0.00
2022-11-29T01:44:47.618Z,0.00
2022-11-29T01:45:47.651Z,0.00
2022-11-29T01:46:47.637Z,0.00
2022-11-29T01:47:47.625Z,0.00
2022-11-29T01:48:47.634Z,0.00
2022-11-29T01:49:47.635Z,0.00
2022-11-29T01:50:47.625Z,0.00
2022-11-29T01:51:47.696Z,0.00
2022-11-29T01:52:47.685Z,0.00
2022-11-29T01:53:47.699Z,0.00
2022-11-29T01:54:47.855Z,0.00
2022-11-29T01:55:47.752Z,0.00
2022-11-29T01:56:47.719Z,0.00
2022-11-29T01:57:47.707Z,0.00
2022-11-29T01:58:47.691Z,0.00
2022-11-29T01:59:47.767Z,0.00
2022-11-29T02:00:47.781Z,0.00
2022-11-29T02:01:47.767Z,0.00
2022-11-29T02:02:47.794Z,0.00
2022-11-29T02:03:47.778Z,0.00
2022-11-29T02:04:47.967Z,0.00
2022-11-29T02:05:47.818Z,0.00
2022-11-29T02:06:47.811Z,0.00
2022-11-29T02:07:47.885Z,0.00
2022-11-29T02:08:47.809Z,0.00
2022-11-29T02:09:47.800Z,0.00
2022-11-29T02:10:47.805Z,0.00
2022-11-29T02:11:47.821Z,0.00
2022-11-29T02:12:47.815Z,0.00
2022-11-29T02:13:47.810Z,0.00
2022-11-29T02:14:47.952Z,0.00
2022-11-29T02:15:47.874Z,0.00
2022-11-29T02:16:51.061Z,0.00
2022-11-29T02:17:47.881Z,0.00
2022-11-29T02:18:47.872Z,0.00
2022-11-29T02:19:47.869Z,0.00
2022-11-29T02:20:47.851Z,0.00
2022-11-29T02:21:47.851Z,0.00
2022-11-29T02:22:47.852Z,0.00
2022-11-29T02:23:47.842Z,0.00
2022-11-29T02:24:47.958Z,0.00
2022-11-29T02:25:47.815Z,0.00
2022-11-29T02:26:47.883Z,0.00
2022-11-29T02:27:47.963Z,0.00
2022-11-29T02:28:47.913Z,0.00
2022-11-29T02:29:47.904Z,0.00
2022-11-29T02:30:47.993Z,0.00
2022-11-29T02:31:47.983Z,0.00
2022-11-29T02:32:47.985Z,0.00
2022-11-29T02:33:47.995Z,0.00
2022-11-29T02:34:48.000Z,0.00
2022-11-29T02:35:48.010Z,0.00
2022-11-29T02:36:47.995Z,0.00
2022-11-29T02:37:47.995Z,0.00
2022-11-29T02:38:47.987Z,0.00
2022-11-29T02:39:47.989Z,0.00
2022-11-29T02:40:47.986Z,0.00
2022-11-29T02:41:47.986Z,0.00
2022-11-29T02:42:54.098Z,0.00
2022-11-29T02:43:47.976Z,0.00
2022-11-29T02:44:47.959Z,0.00
2022-11-29T02:45:48.071Z,0.00
2022-11-29T02:46:48.028Z,0.00
2022-11-29T02:47:48.018Z,0.00
2022-11-29T02:48:48.008Z,0.00
2022-11-29T02:49:47.998Z,0.00
2022-11-29T02:50:48.088Z,0.00
2022-11-29T02:51:48.109Z,0.00
2022-11-29T02:52:48.101Z,0.00
2022-11-29T02:53:48.089Z,0.00
2022-11-29T02:54:48.225Z,0.00
2022-11-29T02:55:48.133Z,0.00
2022-11-29T02:56:48.139Z,0.00
2022-11-29T02:57:48.140Z,0.00
2022-11-29T02:58:48.130Z,0.00
2022-11-29T02:59:48.115Z,0.00
2022-11-29T03:00:48.190Z,0.00
2022-11-29T03:01:48.214Z,0.00
2022-11-29T03:02:48.278Z,0.00
2022-11-29T03:03:48.281Z,0.00
2022-11-29T03:04:48.283Z,0.00
2022-11-29T03:05:48.262Z,0.00
2022-11-29T03:06:48.256Z,0.00
2022-11-29T03:07:48.326Z,0.00
2022-11-29T03:08:48.255Z,0.00
2022-11-29T03:09:48.242Z,0.00
2022-11-29T03:10:48.233Z,0.00
2022-11-29T03:11:48.223Z,0.00
2022-11-29T03:12:48.312Z,0.00
2022-11-29T03:13:48.303Z,0.00
2022-11-29T03:14:48.375Z,0.00
2022-11-29T03:15:48.429Z,0.00
2022-11-29T03:16:48.362Z,0.00
2022-11-29T03:17:48.445Z,0.00
2022-11-29T03:18:48.447Z,0.00
2022-11-29T03:19:48.435Z,0.00
2022-11-29T03:20:48.425Z,0.00
2022-11-29T03:21:48.415Z,0.00
2022-11-29T03:22:48.415Z,0.00
2022-11-29T03:23:48.426Z,0.00
2022-11-29T03:24:48.432Z,0.00
2022-11-29T03:25:48.436Z,0.00
2022-11-29T03:26:48.437Z,0.00
2022-11-29T03:27:48.436Z,0.00
2022-11-29T03:28:48.458Z,0.00
2022-11-29T03:29:48.447Z,0.00
2022-11-29T03:30:48.486Z,0.00
2022-11-29T03:31:48.468Z,0.00
2022-11-29T03:32:48.456Z,0.00
2022-11-29T03:33:48.457Z,0.00
2022-11-29T03:34:51.741Z,0.00
2022-11-29T03:35:48.470Z,0.00
2022-11-29T03:36:48.461Z,0.00
2022-11-29T03:37:48.480Z,0.00
2022-11-29T03:38:48.469Z,0.00
2022-11-29T03:39:48.493Z,0.00
2022-11-29T03:40:48.497Z,0.00
2022-11-29T03:41:48.489Z,0.00
2022-11-29T03:42:48.490Z,0.00
2022-11-29T03:43:48.488Z,0.00
2022-11-29T03:44:48.478Z,0.00
2022-11-29T03:45:48.568Z,0.00
2022-11-29T03:46:48.560Z,0.00
2022-11-29T03:47:48.574Z,0.00
2022-11-29T03:48:48.561Z,0.00
2022-11-29T03:49:48.552Z,0.00
2022-11-29T03:50:48.541Z,0.00
2022-11-29T03:51:48.529Z,0.00
2022-11-29T03:52:48.622Z,0.00
2022-11-29T03:53:48.613Z,0.00
2022-11-29T03:54:48.684Z,0.00
2022-11-29T03:55:48.665Z,0.00
2022-11-29T03:56:48.744Z,0.00
2022-11-29T03:57:48.744Z,0.00
2022-11-29T03:58:48.733Z,0.00
2022-11-29T03:59:48.757Z,0.00
2022-11-29T04:00:48.749Z,0.00
2022-11-29T04:01:48.848Z,0.00
2022-11-29T04:02:48.863Z,0.00
2022-11-29T04:03:48.845Z,0.00
2022-11-29T04:04:48.847Z,0.00
2022-11-29T04:05:48.834Z,0.00
2022-11-29T04:06:48.857Z,0.00
2022-11-29T04:07:48.881Z,0.00
2022-11-29T04:08:48.975Z,0.00
2022-11-29T04:09:48.915Z,0.00
2022-11-29T04:10:48.926Z,0.00
2022-11-29T04:11:48.897Z,0.00
2022-11-29T04:12:48.887Z,0.00
2022-11-29T04:13:48.877Z,0.00
2022-11-29T04:14:48.867Z,0.00
2022-11-29T04:15:48.865Z,0.00
2022-11-29T04:16:48.940Z,0.00
2022-11-29T04:17:48.926Z,0.00
2022-11-29T04:18:48.918Z,0.00
2022-11-29T04:19:48.910Z,0.00
2022-11-29T04:20:48.898Z,0.00
2022-11-29T04:21:48.988Z,0.00
2022-11-29T04:22:48.978Z,0.00
2022-11-29T04:23:48.979Z,0.00
2022-11-29T04:24:48.971Z,0.00
2022-11-29T04:25:48.958Z,0.00
2022-11-29T04:26:48.959Z,0.00
2022-11-29T04:27:48.960Z,0.00
2022-11-29T04:28:48.950Z,0.00
2022-11-29T04:29:48.977Z,0.00
2022-11-29T04:30:49.030Z,0.00
2022-11-29T04:31:48.972Z,0.00
2022-11-29T04:32:48.983Z,0.00
2022-11-29T04:33:48.972Z,0.00
2022-11-29T04:34:49.050Z,0.00
2022-11-29T04:35:49.052Z,0.00
2022-11-29T04:36:49.040Z,0.00
2022-11-29T04:37:49.043Z,0.00
2022-11-29T04:38:49.047Z,0.00
2022-11-29T04:39:49.050Z,0.00
2022-11-29T04:40:49.037Z,0.00
2022-11-29T04:41:49.116Z,0.00
2022-11-29T04:42:49.105Z,0.00
2022-11-29T04:43:49.094Z,0.00
2022-11-29T04:44:49.093Z,0.00
2022-11-29T04:45:49.085Z,0.00
2022-11-29T04:46:49.110Z,0.00
2022-11-29T04:47:49.105Z,0.00
2022-11-29T04:48:49.096Z,0.00
2022-11-29T04:49:49.084Z,0.00
2022-11-29T04:50:49.072Z,0.00
2022-11-29T04:51:49.095Z,0.00
2022-11-29T04:52:49.115Z,0.00
2022-11-29T04:53:49.109Z,0.00
2022-11-29T04:54:49.095Z,0.00
2022-11-29T04:55:49.103Z,0.00
2022-11-29T04:56:49.088Z,0.00
2022-11-29T04:57:49.095Z,0.00
2022-11-29T04:58:49.086Z,0.00
2022-11-29T04:59:49.087Z,0.00
2022-11-29T05:00:49.077Z,0.00
2022-11-29T05:01:49.117Z,0.00
2022-11-29T05:02:49.158Z,0.00
2022-11-29T05:03:53.843Z,0.00
2022-11-29T05:04:49.149Z,0.00
2022-11-29T05:05:49.145Z,0.00
2022-11-29T05:06:49.130Z,0.00
2022-11-29T05:07:49.207Z,0.00
2022-11-29T05:08:49.210Z,0.00
2022-11-29T05:09:49.321Z,0.00
2022-11-29T05:10:49.218Z,0.00
2022-11-29T05:11:49.219Z,0.00
2022-11-29T05:12:49.208Z,0.00
2022-11-29T05:13:49.198Z,0.00
2022-11-29T05:14:49.209Z,0.00
2022-11-29T05:15:49.247Z,0.00
2022-11-29T05:16:49.250Z,0.00
2022-11-29T05:17:49.241Z,0.00
2022-11-29T05:18:49.312Z,0.00
2022-11-29T05:19:49.330Z,0.00
2022-11-29T05:20:49.330Z,0.00
2022-11-29T05:21:49.329Z,0.00
2022-11-29T05:22:49.326Z,0.00
2022-11-29T05:23:49.315Z,0.00
2022-11-29T05:24:49.326Z,0.00
2022-11-29T05:25:49.313Z,0.00
2022-11-29T05:26:49.313Z,0.00
2022-11-29T05:27:49.302Z,0.00
2022-11-29T05:28:49.319Z,0.00
2022-11-29T05:29:49.363Z,0.00
2022-11-29T05:30:49.500Z,0.00
2022-11-29T05:31:49.412Z,0.00
2022-11-29T05:32:49.413Z,0.00
2022-11-29T05:33:49.408Z,0.00
2022-11-29T05:34:49.758Z,0.00
2022-11-29T05:35:49.464Z,0.00
2022-11-29T05:36:49.464Z,0.00
2022-11-29T05:37:49.454Z,0.00
2022-11-29T05:38:49.460Z,0.00
2022-11-29T05:39:49.464Z,0.00
2022-11-29T05:40:49.475Z,0.00
2022-11-29T05:41:49.465Z,0.00
2022-11-29T05:42:49.457Z,0.00
2022-11-29T05:43:49.469Z,0.00
2022-11-29T05:44:49.456Z,0.00
2022-11-29T05:45:49.506Z,0.00
2022-11-29T05:46:49.510Z,0.00
2022-11-29T05:47:49.490Z,0.00
2022-11-29T05:48:49.479Z,0.00
2022-11-29T05:49:49.468Z,0.00
2022-11-29T05:50:49.466Z,0.00
2022-11-29T05:51:49.468Z,0.00
2022-11-29T05:52:49.469Z,0.00
2022-11-29T05:53:49.459Z,0.00
2022-11-29T05:54:49.450Z,0.00
2022-11-29T05:55:49.438Z,0.00
2022-11-29T05:56:49.529Z,0.00
2022-11-29T05:57:49.518Z,0.00
2022-11-29T05:58:49.511Z,0.00
2022-11-29T05:59:49.500Z,0.00
2022-11-29T06:00:49.499Z,0.00
2022-11-29T06:01:49.574Z,0.00
2022-11-29T06:02:49.585Z,0.00
2022-11-29T06:03:49.489Z,0.00
2022-11-29T06:04:49.481Z,0.00
2022-11-29T06:05:49.471Z,0.00
2022-11-29T06:06:49.464Z,0.00
2022-11-29T06:07:49.481Z,0.00
2022-11-29T06:08:49.472Z,0.00
2022-11-29T06:09:50.405Z,0.00
2022-11-29T06:10:49.552Z,0.00
2022-11-29T06:11:49.562Z,0.00
2022-11-29T06:12:49.552Z,0.00
2022-11-29T06:13:49.545Z,0.00
2022-11-29T06:14:49.535Z,0.00
2022-11-29T06:15:49.567Z,0.00
2022-11-29T06:16:49.573Z,0.00
2022-11-29T06:17:49.563Z,0.00
2022-11-29T06:18:49.564Z,0.00
2022-11-29T06:19:49.574Z,0.00
2022-11-29T06:20:49.585Z,0.00
2022-11-29T06:21:49.588Z,0.00
2022-11-29T06:22:49.585Z,0.00
2022-11-29T06:23:49.585Z,0.00
2022-11-29T06:24:49.575Z,0.00
2022-11-29T06:25:49.583Z,0.00
2022-11-29T06:26:49.582Z,0.00
2022-11-29T06:27:49.566Z,0.00
2022-11-29T06:28:49.880Z,0.00
2022-11-29T06:29:49.597Z,0.00
2022-11-29T06:30:49.606Z,0.00
2022-11-29T06:31:49.611Z,0.00
2022-11-29T06:32:49.597Z,0.00
2022-11-29T06:33:49.586Z,0.00
2022-11-29T06:34:49.576Z,0.00
2022-11-29T06:35:49.588Z,0.00
2022-11-29T06:36:49.579Z,0.00
2022-11-29T06:37:49.577Z,0.00
2022-11-29T06:38:49.569Z,0.00
2022-11-29T06:39:49.584Z,0.00
2022-11-29T06:40:49.578Z,4.00
2022-11-29T06:41:49.579Z,4.00
2022-11-29T06:42:49.569Z,0.00
2022-11-29T06:43:49.648Z,4.00
2022-11-29T06:44:49.641Z,4.00
2022-11-29T06:45:49.629Z,4.00
2022-11-29T06:46:49.756Z,4.00
2022-11-29T06:47:49.687Z,4.00
2022-11-29T06:48:49.691Z,8.00
2022-11-29T06:49:49.694Z,8.00
2022-11-29T06:50:49.720Z,8.00
2022-11-29T06:51:49.751Z,12.00
2022-11-29T06:52:49.790Z,8.00
2022-11-29T06:53:49.771Z,12.00
2022-11-29T06:54:49.801Z,16.00
2022-11-29T06:55:49.821Z,12.00
2022-11-29T06:56:49.872Z,16.00
2022-11-29T06:57:49.914Z,16.00
2022-11-29T06:58:49.936Z,20.00
2022-11-29T06:59:49.951Z,20.00
2022-11-29T07:00:50.019Z,20.00
2022-11-29T07:01:50.006Z,24.00
2022-11-29T07:02:50.034Z,28.00
2022-11-29T07:03:50.053Z,28.00
2022-11-29T07:04:50.236Z,36.00
2022-11-29T07:05:50.093Z,40.00
2022-11-29T07:06:50.124Z,40.00
2022-11-29T07:07:50.160Z,44.00
2022-11-29T07:08:50.184Z,48.00
2022-11-29T07:09:50.205Z,52.00
2022-11-29T07:10:50.242Z,56.00
2022-11-29T07:11:50.271Z,60.00
2022-11-29T07:12:50.277Z,64.00
2022-11-29T07:13:50.306Z,60.00
2022-11-29T07:14:50.336Z,64.00
2022-11-29T07:15:50.374Z,64.00
2022-11-29T07:16:55.856Z,64.00
2022-11-29T07:17:50.389Z,76.00
2022-11-29T07:18:50.406Z,80.00
2022-11-29T07:19:50.447Z,84.00
2022-11-29T07:20:50.467Z,92.00
2022-11-29T07:21:50.497Z,100.00
2022-11-29T07:22:50.509Z,100.00
2022-11-29T07:23:50.576Z,108.00
2022-11-29T07:24:50.629Z,116.00
2022-11-29T07:25:50.657Z,124.00
2022-11-29T07:26:52.921Z,128.00
2022-11-29T07:27:50.719Z,128.00
2022-11-29T07:28:50.730Z,148.00
2022-11-29T07:29:50.731Z,148.00
2022-11-29T07:30:50.750Z,168.00
2022-11-29T07:31:50.828Z,172.00
2022-11-29T07:32:52.874Z,168.00
2022-11-29T07:33:50.833Z,172.00
2022-11-29T07:34:50.844Z,180.00
2022-11-29T07:35:50.851Z,184.00
2022-11-29T07:36:50.873Z,204.00
2022-11-29T07:37:50.874Z,204.00
2022-11-29T07:38:50.922Z,236.00
2022-11-29T07:39:50.943Z,252.00
2022-11-29T07:40:50.962Z,264.00
2022-11-29T07:41:50.992Z,240.00
2022-11-29T07:42:50.992Z,240.00
2022-11-29T07:43:51.142Z,244.00
2022-11-29T07:44:51.110Z,260.00
2022-11-29T07:45:51.135Z,276.00
2022-11-29T07:46:51.212Z,268.00
2022-11-29T07:47:51.207Z,304.00
2022-11-29T07:48:51.244Z,304.00
2022-11-29T07:49:51.294Z,328.00
2022-11-29T07:50:51.333Z,328.00
2022-11-29T07:51:51.354Z,336.00
2022-11-29T07:52:51.393Z,388.00
2022-11-29T07:53:51.454Z,408.00
2022-11-29T07:54:51.535Z,424.00
2022-11-29T07:55:51.520Z,424.00
2022-11-29T07:56:51.585Z,436.00
2022-11-29T07:57:51.666Z,440.00
2022-11-29T07:58:51.722Z,460.00
2022-11-29T07:59:51.736Z,468.00
2022-11-29T08:00:51.764Z,452.00
2022-11-29T08:01:51.773Z,472.00
2022-11-29T08:02:51.777Z,468.00
2022-11-29T08:03:51.767Z,440.00
2022-11-29T08:04:51.829Z,432.00
2022-11-29T08:05:51.910Z,424.00
2022-11-29T08:06:51.887Z,448.00
2022-11-29T08:07:52.076Z,476.00
2022-11-29T08:08:52.018Z,464.00
2022-11-29T08:09:52.078Z,488.00
2022-11-29T08:10:52.168Z,488.00
2022-11-29T08:11:52.159Z,460.00
2022-11-29T08:12:52.171Z,476.00
2022-11-29T08:13:52.149Z,496.00
2022-11-29T08:14:52.211Z,500.00
2022-11-29T08:15:52.271Z,504.00
2022-11-29T08:16:52.358Z,512.00
2022-11-29T08:17:52.339Z,480.00
2022-11-29T08:18:52.718Z,500.00
2022-11-29T08:19:52.412Z,552.00
2022-11-29T08:20:52.429Z,548.00
2022-11-29T08:21:52.460Z,616.00
2022-11-29T08:22:52.482Z,628.00
2022-11-29T08:23:52.514Z,584.00
2022-11-29T08:24:52.525Z,624.00
2022-11-29T08:25:52.562Z,592.00
2022-11-29T08:26:52.584Z,584.00
2022-11-29T08:27:52.603Z,600.00
2022-11-29T08:28:52.643Z,564.00
2022-11-29T08:29:52.664Z,560.00
2022-11-29T08:30:52.683Z,576.00
2022-11-29T08:31:52.792Z,548.00
2022-11-29T08:32:52.762Z,544.00
2022-11-29T08:33:52.812Z,564.00
2022-11-29T08:34:52.864Z,556.00
2022-11-29T08:35:52.894Z,560.00
2022-11-29T08:36:52.925Z,544.00
2022-11-29T08:37:52.946Z,604.00
2022-11-29T08:39:01.255Z,596.00
2022-11-29T08:39:53.057Z,608.00
2022-11-29T08:40:53.076Z,592.00
2022-11-29T08:41:53.096Z,632.00
2022-11-29T08:42:53.125Z,620.00
2022-11-29T08:43:53.157Z,656.00
2022-11-29T08:44:53.226Z,664.00
2022-11-29T08:45:53.238Z,676.00
2022-11-29T08:46:53.247Z,704.00
2022-11-29T08:47:53.228Z,688.00
2022-11-29T08:48:53.298Z,696.00
2022-11-29T08:49:53.367Z,684.00
2022-11-29T08:50:53.347Z,748.00
2022-11-29T08:51:53.338Z,736.00
2022-11-29T08:52:53.345Z,676.00
2022-11-29T08:53:53.399Z,684.00
2022-11-29T08:54:53.531Z,680.00
2022-11-29T08:55:53.459Z,660.00
2022-11-29T08:57:37.445Z,640.00
2022-11-29T08:57:53.550Z,640.00
2022-11-29T08:58:53.570Z,684.00
2022-11-29T08:59:53.620Z,724.00
2022-11-29T09:00:53.745Z,752.00
2022-11-29T09:01:53.774Z,712.00
2022-11-29T09:02:53.781Z,744.00
2022-11-29T09:03:53.760Z,800.00
2022-11-29T09:04:53.821Z,788.00
2022-11-29T09:05:53.885Z,796.00
2022-11-29T09:06:53.952Z,892.00
2022-11-29T09:07:53.940Z,832.00
2022-11-29T09:08:53.941Z,932.00
2022-11-29T09:09:53.962Z,916.00
2022-11-29T09:10:53.984Z,928.00
2022-11-29T09:11:53.972Z,1032.00
2022-11-29T09:12:54.044Z,1036.00
2022-11-29T09:13:54.064Z,1124.00
2022-11-29T09:14:54.084Z,1068.00
2022-11-29T09:15:54.053Z,1176.00
2022-11-29T09:16:54.206Z,1272.00
2022-11-29T09:17:54.147Z,1264.00
2022-11-29T09:18:54.155Z,1432.00
2022-11-29T09:19:54.158Z,1424.00
2022-11-29T09:20:54.146Z,1296.00
2022-11-29T09:21:54.165Z,1272.00
2022-11-29T09:22:54.175Z,1248.00
2022-11-29T09:23:54.216Z,1264.00
2022-11-29T09:24:54.247Z,1232.00
2022-11-29T09:25:54.295Z,1156.00
2022-11-29T09:26:54.342Z,1140.00
2022-11-29T09:27:54.385Z,1192.00
2022-11-29T09:28:54.419Z,1236.00
2022-11-29T09:29:54.457Z,1180.00
2022-11-29T09:30:54.507Z,1308.00
2022-11-29T09:31:54.519Z,1252.00
2022-11-29T09:32:54.537Z,1400.00
2022-11-29T09:33:54.545Z,1324.00
2022-11-29T09:34:54.588Z,1384.00
2022-11-29T09:35:54.638Z,1484.00
2022-11-29T09:36:54.698Z,1492.00
2022-11-29T09:37:54.760Z,1472.00
2022-11-29T09:38:54.800Z,1464.00
2022-11-29T09:39:54.914Z,1532.00
2022-11-29T09:40:54.919Z,1600.00
2022-11-29T09:41:54.920Z,1516.00
2022-11-29T09:42:54.920Z,1668.00
2022-11-29T09:43:54.920Z,1664.00
2022-11-29T09:44:54.934Z,1544.00
2022-11-29T09:45:55.017Z,1656.00
2022-11-29T09:46:58.861Z,1644.00
2022-11-29T09:47:55.104Z,1632.00
2022-11-29T09:48:55.058Z,1560.00
2022-11-29T09:49:55.061Z,1576.00
2022-11-29T09:50:55.072Z,1604.00
2022-11-29T09:51:55.063Z,1816.00
2022-11-29T09:52:55.040Z,1924.00
2022-11-29T09:53:55.043Z,1896.00
2022-11-29T09:54:55.108Z,2100.00
2022-11-29T09:55:55.164Z,2176.00
2022-11-29T09:56:55.183Z,2116.00
2022-11-29T09:57:55.185Z,2292.00
2022-11-29T09:58:55.193Z,2288.00
2022-11-29T09:59:55.194Z,2084.00
2022-11-29T10:00:55.248Z,2220.00
2022-11-29T10:01:55.310Z,2120.00
2022-11-29T10:02:55.304Z,2180.00
2022-11-29T10:03:55.275Z,2056.00
2022-11-29T10:04:55.297Z,2172.00
2022-11-29T10:05:55.348Z,2132.00
2022-11-29T10:06:55.424Z,2064.00
2022-11-29T10:07:55.509Z,2168.00
2022-11-29T10:08:55.444Z,2068.00
2022-11-29T10:09:55.467Z,2268.00
2022-11-29T10:10:55.466Z,2180.00
2022-11-29T10:11:55.466Z,2144.00
2022-11-29T10:12:55.469Z,2132.00
2022-11-29T10:13:55.529Z,2148.00
2022-11-29T10:14:56.897Z,1924.00
2022-11-29T10:15:55.608Z,2112.00
2022-11-29T10:16:55.690Z,2064.00
2022-11-29T10:17:55.668Z,1976.00
2022-11-29T10:18:55.668Z,1832.00
2022-11-29T10:19:55.689Z,1964.00
2022-11-29T10:20:55.679Z,1972.00
2022-11-29T10:21:55.719Z,1988.00
2022-11-29T10:22:55.768Z,1948.00
2022-11-29T10:23:55.749Z,2008.00
2022-11-29T10:24:55.769Z,1948.00
2022-11-29T10:25:55.780Z,1732.00
2022-11-29T10:26:55.838Z,1724.00
2022-11-29T10:27:55.881Z,1836.00
2022-11-29T10:28:55.931Z,1892.00
2022-11-29T10:29:55.941Z,1920.00
2022-11-29T10:30:55.996Z,1956.00
2022-11-29T10:31:55.961Z,2156.00
2022-11-29T10:32:55.955Z,2200.00
2022-11-29T10:33:55.981Z,2396.00
2022-11-29T10:34:56.064Z,2244.00
2022-11-29T10:35:56.032Z,2280.00
2022-11-29T10:36:56.052Z,2240.00
2022-11-29T10:38:28.613Z,2212.00
2022-11-29T10:38:56.073Z,2300.00
2022-11-29T10:39:56.116Z,2296.00
2022-11-29T10:40:56.137Z,2420.00
2022-11-29T10:41:56.184Z,2312.00
2022-11-29T10:42:56.224Z,2264.00
2022-11-29T10:43:56.283Z,2360.00
2022-11-29T10:44:56.255Z,2216.00
2022-11-29T10:45:56.465Z,2100.00
2022-11-29T10:46:56.256Z,2204.00
2022-11-29T10:47:56.235Z,2084.00
2022-11-29T10:48:56.304Z,2020.00
2022-11-29T10:49:56.295Z,1928.00
2022-11-29T10:50:56.351Z,1768.00
2022-11-29T10:51:56.316Z,1760.00
2022-11-29T10:53:00.049Z,1632.00
2022-11-29T10:53:56.437Z,1688.00
2022-11-29T10:54:56.417Z,1544.00
2022-11-29T10:55:56.420Z,1592.00
2022-11-29T10:56:56.475Z,1464.00
2022-11-29T10:57:56.517Z,1400.00
2022-11-29T10:58:56.578Z,1416.00
2022-11-29T10:59:56.569Z,1340.00
2022-11-29T11:00:56.598Z,1212.00
2022-11-29T11:01:56.608Z,1304.00
2022-11-29T11:02:56.579Z,1292.00
2022-11-29T11:03:56.569Z,1288.00
2022-11-29T11:04:56.650Z,1440.00
2022-11-29T11:05:56.665Z,1424.00
2022-11-29T11:06:56.651Z,1500.00
2022-11-29T11:07:56.703Z,1484.00
2022-11-29T11:08:56.680Z,1500.00
2022-11-29T11:09:56.764Z,1572.00
2022-11-29T11:11:01.669Z,1600.00
2022-11-29T11:11:56.812Z,1544.00
2022-11-29T11:12:56.801Z,1540.00
2022-11-29T11:13:56.844Z,1536.00
2022-11-29T11:14:56.892Z,1468.00
2022-11-29T11:15:56.894Z,1652.00
2022-11-29T11:16:57.089Z,1688.00
2022-11-29T11:17:56.943Z,1760.00
2022-11-29T11:18:56.985Z,1632.00
2022-11-29T11:19:57.024Z,1764.00
2022-11-29T11:20:57.063Z,1720.00
2022-11-29T11:21:57.123Z,1628.00
2022-11-29T11:22:57.124Z,1556.00
2022-11-29T11:23:57.126Z,1576.00
2022-11-29T11:24:57.143Z,1544.00
2022-11-29T11:25:57.155Z,1628.00
2022-11-29T11:26:57.203Z,1644.00
2022-11-29T11:27:57.257Z,1776.00
2022-11-29T11:28:57.305Z,1716.00
2022-11-29T11:29:57.305Z,1616.00
2022-11-29T11:30:57.397Z,1528.00
2022-11-29T11:31:57.379Z,1352.00
2022-11-29T11:32:57.464Z,1448.00
2022-11-29T11:33:57.429Z,1412.00
2022-11-29T11:34:57.497Z,1568.00
2022-11-29T11:35:57.537Z,1532.00
2022-11-29T11:36:57.597Z,1508.00
2022-11-29T11:37:57.722Z,1436.00
2022-11-29T11:38:57.703Z,1628.00
2022-11-29T11:39:57.827Z,1616.00
2022-11-29T11:40:58.201Z,1632.00
2022-11-29T11:41:57.770Z,1572.00
2022-11-29T11:42:57.780Z,1624.00
2022-11-29T11:43:57.779Z,1508.00
2022-11-29T11:44:57.791Z,1588.00
2022-11-29T11:45:57.806Z,1696.00
2022-11-29T11:46:57.810Z,1612.00
2022-11-29T11:47:57.861Z,1820.00
2022-11-29T11:48:57.919Z,1784.00
2022-11-29T11:49:57.978Z,1736.00
2022-11-29T11:50:57.965Z,1720.00
2022-11-29T11:51:58.031Z,1576.00
2022-11-29T11:52:58.036Z,1688.00
2022-11-29T11:53:58.110Z,1768.00
2022-11-29T11:54:58.122Z,1976.00
2022-11-29T11:55:58.210Z,2148.00
2022-11-29T11:56:58.274Z,2028.00
2022-11-29T11:57:58.254Z,1992.00
2022-11-29T11:58:58.253Z,1856.00
2022-11-29T12:00:03.378Z,1920.00
2022-11-29T12:01:06.220Z,1900.00
2022-11-29T12:01:58.366Z,2196.00
2022-11-29T12:02:58.516Z,2248.00
2022-11-29T12:03:58.458Z,2044.00
2022-11-29T12:04:59.135Z,2068.00
2022-11-29T12:05:58.539Z,1912.00
2022-11-29T12:06:58.508Z,1948.00
2022-11-29T12:08:13.881Z,2080.00
2022-11-29T12:08:58.604Z,2256.00
2022-11-29T12:09:58.617Z,2244.00
2022-11-29T12:11:02.688Z,2048.00
2022-11-29T12:11:58.655Z,1980.00
2022-11-29T12:12:58.697Z,1932.00
2022-11-29T12:13:58.749Z,1896.00
2022-11-29T12:14:58.775Z,2096.00
2022-11-29T12:15:58.829Z,2156.00
2022-11-29T12:16:58.878Z,2320.00
2022-11-29T12:17:58.891Z,2364.00
2022-11-29T12:18:58.917Z,2416.00
2022-11-29T12:19:58.958Z,2312.00
2022-11-29T12:20:58.999Z,2360.00
2022-11-29T12:21:59.051Z,2220.00
2022-11-29T12:22:59.090Z,2160.00
2022-11-29T12:23:59.111Z,2188.00
2022-11-29T12:24:59.141Z,2444.00
2022-11-29T12:25:59.199Z,2676.00
2022-11-29T12:26:59.544Z,2864.00
2022-11-29T12:27:59.302Z,3172.00
2022-11-29T12:28:59.308Z,2804.00
2022-11-29T12:29:59.291Z,2504.00
2022-11-29T12:30:59.359Z,2480.00
2022-11-29T12:31:59.322Z,2376.00
2022-11-29T12:32:59.352Z,2352.00
2022-11-29T12:33:59.413Z,2304.00
2022-11-29T12:34:59.433Z,2244.00
2022-11-29T12:35:59.434Z,1972.00
2022-11-29T12:36:59.473Z,1600.00
2022-11-29T12:37:59.523Z,1508.00
2022-11-29T12:38:59.567Z,1348.00
2022-11-29T12:39:59.613Z,1240.00
2022-11-29T12:40:59.638Z,1132.00
2022-11-29T12:41:59.692Z,1028.00
2022-11-29T12:42:59.686Z,936.00
2022-11-29T12:43:59.685Z,912.00
2022-11-29T12:44:59.697Z,856.00
2022-11-29T12:45:59.754Z,824.00
2022-11-29T12:47:28.171Z,776.00
2022-11-29T12:47:59.757Z,784.00
2022-11-29T12:48:59.785Z,820.00